createdAt,value
2019-02-15T00:01:42.924Z,2.90
2019-02-15T00:04:12.356Z,2.90
2019-02-15T00:06:41.882Z,2.80
2019-02-15T00:09:11.376Z,2.80
2019-02-15T00:11:42.060Z,2.80
2019-02-15T00:14:11.923Z,2.80
2019-02-15T00:16:41.379Z,2.80
2019-02-15T00:19:36.274Z,2.80
2019-02-15T00:22:05.812Z,2.80
2019-02-15T00:24:38.210Z,2.80
2019-02-15T00:27:07.412Z,2.80
2019-02-15T00:29:36.771Z,2.80
2019-02-15T00:32:06.211Z,2.80
2019-02-15T00:34:35.905Z,2.80
2019-02-15T00:37:05.290Z,2.70
2019-02-15T00:39:34.684Z,2.70
2019-02-15T00:42:04.551Z,2.70
2019-02-15T00:44:33.903Z,2.70
2019-02-15T00:47:23.978Z,2.70
2019-02-15T00:50:13.988Z,2.60
2019-02-15T00:53:02.347Z,2.60
2019-02-15T00:55:52.665Z,2.60
2019-02-15T00:58:44.266Z,2.60
2019-02-15T01:01:37.587Z,2.60
2019-02-15T01:04:22.983Z,2.60
2019-02-15T01:07:04.473Z,2.50
2019-02-15T01:09:38.904Z,2.50
2019-02-15T01:12:27.235Z,2.50
2019-02-15T01:14:56.618Z,2.40
2019-02-15T01:17:26.061Z,2.40
2019-02-15T01:19:56.029Z,2.50
2019-02-15T01:22:26.441Z,2.40
2019-02-15T01:24:56.222Z,2.40
2019-02-15T01:27:39.029Z,2.40
2019-02-15T01:30:24.513Z,2.50
2019-02-15T01:33:04.574Z,2.50
2019-02-15T01:35:56.519Z,2.50
2019-02-15T01:38:43.684Z,2.50
2019-02-15T01:41:41.317Z,2.50
2019-02-15T01:44:36.411Z,2.50
2019-02-15T01:47:10.001Z,2.40
2019-02-15T01:49:39.376Z,2.40
2019-02-15T01:52:09.273Z,2.40
2019-02-15T01:54:39.115Z,2.40
2019-02-15T01:57:08.652Z,2.40
2019-02-15T01:59:38.090Z,2.40
2019-02-15T02:02:29.038Z,2.40
2019-02-15T02:04:58.364Z,2.40
2019-02-15T02:07:27.826Z,2.40
2019-02-15T02:09:57.293Z,2.40
2019-02-15T02:12:27.041Z,2.40
2019-02-15T02:14:56.527Z,2.40
2019-02-15T02:17:25.967Z,2.30
2019-02-15T02:19:55.283Z,2.30
2019-02-15T02:22:24.654Z,2.30
2019-02-15T02:24:54.548Z,2.30
2019-02-15T02:27:24.026Z,2.30
2019-02-15T02:29:53.371Z,2.20
2019-02-15T02:32:22.914Z,2.20
2019-02-15T02:34:52.555Z,2.20
2019-02-15T02:37:22.017Z,2.30
2019-02-15T02:39:51.485Z,2.30
2019-02-15T02:42:20.894Z,2.30
2019-02-15T02:44:50.242Z,2.40
2019-02-15T02:47:20.076Z,2.30
2019-02-15T02:49:49.401Z,2.30
2019-02-15T02:52:18.769Z,2.40
2019-02-15T02:54:48.148Z,2.30
2019-02-15T02:57:17.536Z,2.30
2019-02-15T02:59:46.884Z,2.20
2019-02-15T03:02:16.283Z,2.20
2019-02-15T03:04:45.851Z,2.20
2019-02-15T03:07:15.373Z,2.20
2019-02-15T03:09:44.945Z,2.20
2019-02-15T03:12:14.323Z,2.20
2019-02-15T03:14:43.703Z,2.20
2019-02-15T03:17:13.027Z,2.10
2019-02-15T03:19:42.417Z,2.20
2019-02-15T03:22:11.758Z,2.20
2019-02-15T03:24:41.223Z,2.10
2019-02-15T03:27:10.724Z,2.10
2019-02-15T03:29:40.167Z,2.10
2019-02-15T03:32:09.581Z,2.20
2019-02-15T03:34:38.961Z,2.10
2019-02-15T03:37:33.263Z,2.10
2019-02-15T03:40:21.460Z,2.10
2019-02-15T03:42:51.080Z,2.10
2019-02-15T03:45:20.589Z,2.00
2019-02-15T03:47:50.122Z,2.00
2019-02-15T03:50:19.675Z,2.10
2019-02-15T03:52:49.031Z,2.00
2019-02-15T03:55:18.369Z,2.10
2019-02-15T03:57:48.078Z,2.10
2019-02-15T04:00:17.489Z,2.00
2019-02-15T04:02:47.094Z,2.00
2019-02-15T04:05:16.446Z,2.00
2019-02-15T04:07:45.843Z,2.00
2019-02-15T04:10:15.225Z,1.90
2019-02-15T04:12:44.896Z,1.90
2019-02-15T04:15:14.241Z,1.90
2019-02-15T04:17:43.695Z,1.90
2019-02-15T04:20:14.398Z,1.90
2019-02-15T04:22:43.780Z,1.90
2019-02-15T04:25:13.349Z,1.90
2019-02-15T04:27:42.828Z,1.90
2019-02-15T04:30:14.581Z,1.90
2019-02-15T04:32:43.846Z,1.90
2019-02-15T04:35:13.259Z,1.90
2019-02-15T04:37:42.648Z,1.90
2019-02-15T04:40:12.017Z,2.00
2019-02-15T04:42:41.366Z,2.00
2019-02-15T04:45:10.855Z,2.00
2019-02-15T04:47:40.470Z,2.00
2019-02-15T04:50:10.393Z,2.00
2019-02-15T04:52:39.724Z,2.00
2019-02-15T04:55:09.135Z,1.90
2019-02-15T04:57:38.487Z,2.00
2019-02-15T05:00:08.530Z,2.00
2019-02-15T05:02:37.850Z,1.90
2019-02-15T05:05:09.746Z,1.90
2019-02-15T05:07:39.493Z,1.90
2019-02-15T05:10:09.029Z,1.90
2019-02-15T05:12:38.479Z,1.90
2019-02-15T05:15:10.357Z,1.90
2019-02-15T05:17:40.990Z,1.80
2019-02-15T05:20:10.376Z,1.80
2019-02-15T05:22:39.762Z,1.80
2019-02-15T05:25:09.100Z,1.90
2019-02-15T05:27:38.579Z,1.80
2019-02-15T05:30:08.514Z,1.80
2019-02-15T05:32:37.900Z,1.90
2019-02-15T05:35:07.343Z,1.90
2019-02-15T05:37:36.783Z,1.90
2019-02-15T05:40:06.319Z,1.90
2019-02-15T05:42:35.664Z,1.90
2019-02-15T05:45:05.776Z,1.90
2019-02-15T05:47:35.388Z,1.90
2019-02-15T05:50:05.286Z,1.90
2019-02-15T05:52:34.625Z,1.90
2019-02-15T05:55:04.055Z,1.90
2019-02-15T05:57:33.388Z,1.90
2019-02-15T06:00:02.767Z,1.90
2019-02-15T06:02:32.162Z,2.00
2019-02-15T06:05:01.673Z,2.00
2019-02-15T06:07:31.488Z,2.00
2019-02-15T06:10:01.298Z,2.00
2019-02-15T06:12:31.487Z,2.00
2019-02-15T06:15:00.938Z,2.00
2019-02-15T06:17:30.692Z,2.00
2019-02-15T06:20:00.342Z,1.90
2019-02-15T06:22:30.896Z,2.00
2019-02-15T06:25:00.528Z,2.00
2019-02-15T06:27:30.755Z,1.90
2019-02-15T06:30:00.525Z,2.00
2019-02-15T06:32:30.087Z,1.90
2019-02-15T06:34:59.788Z,1.90
2019-02-15T06:37:29.219Z,2.00
2019-02-15T06:39:58.587Z,2.00
2019-02-15T06:42:28.012Z,2.00
2019-02-15T06:44:57.467Z,2.00
2019-02-15T06:47:26.939Z,2.00
2019-02-15T06:49:56.405Z,2.00
2019-02-15T06:52:25.909Z,2.00
2019-02-15T06:54:56.235Z,2.00
2019-02-15T06:57:25.667Z,2.00
2019-02-15T07:00:12.580Z,2.00
2019-02-15T07:02:59.011Z,2.00
2019-02-15T07:05:28.395Z,2.00
2019-02-15T07:07:57.757Z,2.00
2019-02-15T07:10:27.204Z,2.00
2019-02-15T07:12:57.413Z,2.00
2019-02-15T07:15:33.427Z,2.00
2019-02-15T07:17:58.035Z,2.10
2019-02-15T07:20:29.368Z,2.10
2019-02-15T07:22:58.708Z,2.10
2019-02-15T07:25:28.102Z,2.10
2019-02-15T07:27:58.769Z,2.10
2019-02-15T07:30:29.799Z,2.20
2019-02-15T07:33:00.214Z,2.20
2019-02-15T07:35:29.614Z,2.10
2019-02-15T07:37:59.745Z,2.10
2019-02-15T07:40:29.214Z,2.10
2019-02-15T07:42:58.727Z,2.20
2019-02-15T07:45:28.140Z,2.30
2019-02-15T07:47:58.688Z,2.30
2019-02-15T07:50:28.305Z,2.40
2019-02-15T07:52:57.666Z,2.50
2019-02-15T07:55:27.158Z,2.60
2019-02-15T07:57:56.594Z,2.70
2019-02-15T08:00:25.991Z,2.70
2019-02-15T08:02:55.348Z,2.90
2019-02-15T08:05:24.742Z,2.90
2019-02-15T08:07:58.366Z,3.00
2019-02-15T08:10:27.840Z,3.00
2019-02-15T08:12:57.222Z,3.10
2019-02-15T08:15:35.689Z,3.20
2019-02-15T08:17:58.090Z,3.30
2019-02-15T08:20:27.632Z,3.40
2019-02-15T08:22:58.373Z,3.60
2019-02-15T08:25:28.105Z,3.60
2019-02-15T08:27:57.485Z,3.70
2019-02-15T08:30:28.329Z,3.80
2019-02-15T08:32:59.230Z,3.90
2019-02-15T08:35:28.904Z,4.00
2019-02-15T08:37:58.325Z,4.10
2019-02-15T08:40:27.702Z,4.30
2019-02-15T08:42:57.111Z,4.40
2019-02-15T08:45:26.550Z,4.50
2019-02-15T08:47:55.923Z,4.70
2019-02-15T08:50:25.732Z,4.80
2019-02-15T08:52:55.255Z,5.00
2019-02-15T08:55:24.661Z,5.10
2019-02-15T08:57:54.091Z,5.30
2019-02-15T09:00:24.110Z,5.50
2019-02-15T09:02:53.632Z,5.60
2019-02-15T09:05:23.053Z,5.80
2019-02-15T09:07:52.469Z,5.90
2019-02-15T09:10:21.843Z,6.00
2019-02-15T09:12:51.219Z,6.10
2019-02-15T09:15:21.624Z,6.20
2019-02-15T09:17:51.108Z,6.40
2019-02-15T09:20:20.900Z,6.50
2019-02-15T09:22:50.448Z,6.70
2019-02-15T09:25:19.886Z,6.80
2019-02-15T09:28:10.970Z,6.90
2019-02-15T09:30:40.459Z,7.00
2019-02-15T09:33:10.530Z,7.10
2019-02-15T09:35:39.963Z,7.30
2019-02-15T09:38:09.346Z,7.40
2019-02-15T09:40:38.721Z,7.60
2019-02-15T09:43:08.127Z,7.70
2019-02-15T09:45:37.623Z,7.80
2019-02-15T09:48:07.068Z,7.90
2019-02-15T09:50:36.885Z,8.00
2019-02-15T09:53:06.568Z,8.20
2019-02-15T09:55:36.403Z,8.30
2019-02-15T09:58:05.743Z,8.50
2019-02-15T10:00:36.722Z,8.60
2019-02-15T10:03:06.342Z,8.70
2019-02-15T10:05:36.780Z,8.80
2019-02-15T10:08:06.231Z,8.90
2019-02-15T10:10:35.763Z,9.00
2019-02-15T10:13:05.268Z,9.10
2019-02-15T10:15:34.847Z,9.20
2019-02-15T10:18:04.378Z,9.40
2019-02-15T10:20:33.792Z,9.50
2019-02-15T10:23:03.219Z,9.60
2019-02-15T10:25:32.601Z,9.70
2019-02-15T10:28:02.098Z,9.80
2019-02-15T10:30:31.477Z,9.90
2019-02-15T10:33:00.946Z,10.00
2019-02-15T10:35:30.397Z,10.10
2019-02-15T10:38:00.198Z,10.20
2019-02-15T10:40:31.052Z,10.30
2019-02-15T10:43:00.487Z,10.40
2019-02-15T10:45:30.547Z,10.50
2019-02-15T10:48:00.012Z,10.60
2019-02-15T10:50:30.297Z,10.70
2019-02-15T10:53:00.287Z,10.80
2019-02-15T10:55:29.697Z,10.80
2019-02-15T10:57:59.605Z,10.90
2019-02-15T11:00:29.321Z,11.10
2019-02-15T11:02:58.736Z,11.20
2019-02-15T11:05:28.145Z,11.20
2019-02-15T11:07:58.102Z,11.30
2019-02-15T11:10:27.465Z,11.40
2019-02-15T11:12:56.847Z,11.50
2019-02-15T11:15:26.269Z,11.70
2019-02-15T11:17:55.745Z,11.80
2019-02-15T11:20:25.711Z,11.80
2019-02-15T11:22:55.164Z,11.90
2019-02-15T11:25:24.590Z,11.90
2019-02-15T11:27:54.064Z,12.00
2019-02-15T11:30:23.502Z,12.20
2019-02-15T11:32:52.925Z,12.20
2019-02-15T11:35:22.323Z,12.30
2019-02-15T11:37:51.849Z,12.40
2019-02-15T11:40:21.265Z,12.50
2019-02-15T11:42:50.800Z,12.60
2019-02-15T11:45:20.661Z,12.70
2019-02-15T11:47:51.004Z,12.90
2019-02-15T11:50:20.991Z,12.90
2019-02-15T11:52:50.455Z,13.20
2019-02-15T11:55:20.218Z,13.30
2019-02-15T11:57:49.768Z,13.40
2019-02-15T12:00:23.676Z,13.70
2019-02-15T12:02:53.408Z,13.80
2019-02-15T12:05:23.490Z,13.90
2019-02-15T12:07:56.192Z,14.00
2019-02-15T12:10:26.473Z,14.10
2019-02-15T12:12:55.990Z,14.20
2019-02-15T12:15:25.391Z,14.20
2019-02-15T12:17:54.919Z,14.30
2019-02-15T12:20:24.412Z,14.40
2019-02-15T12:22:53.957Z,14.40
2019-02-15T12:25:25.782Z,14.40
2019-02-15T12:27:55.304Z,14.50
2019-02-15T12:30:25.125Z,14.60
2019-02-15T12:32:54.676Z,14.70
2019-02-15T12:35:24.064Z,14.70
2019-02-15T12:37:53.504Z,14.70
2019-02-15T12:40:23.049Z,14.80
2019-02-15T12:42:52.360Z,14.80
2019-02-15T12:45:21.790Z,14.90
2019-02-15T12:47:51.169Z,14.90
2019-02-15T12:50:20.735Z,14.90
2019-02-15T12:52:50.193Z,15.10
2019-02-15T12:55:19.815Z,15.10
2019-02-15T12:57:49.245Z,15.10
2019-02-15T13:00:18.680Z,15.10
2019-02-15T13:02:48.074Z,15.30
2019-02-15T13:05:17.623Z,15.40
2019-02-15T13:07:47.123Z,15.50
2019-02-15T13:10:20.307Z,15.50
2019-02-15T13:12:50.549Z,15.50
2019-02-15T13:15:19.924Z,15.50
2019-02-15T13:17:49.369Z,15.50
2019-02-15T13:20:18.756Z,15.60
2019-02-15T13:22:48.228Z,15.70
2019-02-15T13:25:17.763Z,15.90
2019-02-15T13:27:47.329Z,15.80
2019-02-15T13:30:17.145Z,15.90
2019-02-15T13:32:46.559Z,15.90
2019-02-15T13:35:16.286Z,16.00
2019-02-15T13:37:45.728Z,16.00
2019-02-15T13:40:15.087Z,15.90
2019-02-15T13:42:44.599Z,16.00
2019-02-15T13:45:14.100Z,16.10
2019-02-15T13:47:43.663Z,16.00
2019-02-15T13:50:14.310Z,16.00
2019-02-15T13:52:46.165Z,16.00
2019-02-15T13:55:15.590Z,16.00
2019-02-15T13:57:45.058Z,16.10
2019-02-15T14:00:14.611Z,16.10
2019-02-15T14:02:44.067Z,16.10
2019-02-15T14:05:13.550Z,16.10
2019-02-15T14:07:42.999Z,16.10
2019-02-15T14:10:12.496Z,16.20
2019-02-15T14:12:42.078Z,16.10
2019-02-15T14:15:11.910Z,16.20
2019-02-15T14:17:47.704Z,16.20
2019-02-15T14:20:12.529Z,16.20
2019-02-15T14:22:42.133Z,16.20
2019-02-15T14:25:12.395Z,16.20
2019-02-15T14:27:41.852Z,16.20
2019-02-15T14:30:11.785Z,16.20
2019-02-15T14:32:41.420Z,16.30
2019-02-15T14:35:10.982Z,16.30
2019-02-15T14:37:40.465Z,16.40
2019-02-15T14:40:10.195Z,16.30
2019-02-15T14:42:39.819Z,16.30
2019-02-15T14:45:09.855Z,16.30
2019-02-15T14:47:39.567Z,16.20
2019-02-15T14:50:09.208Z,16.20
2019-02-15T14:52:38.637Z,16.20
2019-02-15T14:55:08.223Z,16.20
2019-02-15T14:57:37.676Z,16.20
2019-02-15T15:00:09.809Z,16.20
2019-02-15T15:02:39.378Z,16.10
2019-02-15T15:05:09.380Z,16.20
2019-02-15T15:07:39.168Z,16.20
2019-02-15T15:10:08.999Z,16.10
2019-02-15T15:12:40.413Z,16.10
2019-02-15T15:15:11.647Z,16.00
2019-02-15T15:17:41.287Z,15.90
2019-02-15T15:20:12.574Z,15.90
2019-02-15T15:22:42.553Z,15.90
2019-02-15T15:25:14.358Z,15.80
2019-02-15T15:27:44.058Z,15.80
2019-02-15T15:30:13.773Z,15.70
2019-02-15T15:32:43.258Z,15.60
2019-02-15T15:35:12.769Z,15.60
2019-02-15T15:37:49.680Z,15.60
2019-02-15T15:40:19.166Z,15.50
2019-02-15T15:42:48.618Z,15.40
2019-02-15T15:45:18.126Z,15.40
2019-02-15T15:47:47.644Z,15.40
2019-02-15T15:50:17.069Z,15.30
2019-02-15T15:52:46.584Z,15.30
2019-02-15T15:55:17.653Z,15.20
2019-02-15T15:57:47.337Z,15.10
2019-02-15T16:00:16.931Z,15.00
2019-02-15T16:02:46.443Z,14.90
2019-02-15T16:05:15.976Z,14.80
2019-02-15T16:07:45.625Z,14.70
2019-02-15T16:10:15.572Z,14.70
2019-02-15T16:12:45.117Z,14.60
2019-02-15T16:15:14.588Z,14.50
2019-02-15T16:17:44.021Z,14.40
2019-02-15T16:20:14.436Z,14.30
2019-02-15T16:22:44.175Z,14.30
2019-02-15T16:25:14.518Z,14.10
2019-02-15T16:27:44.075Z,14.00
2019-02-15T16:30:13.698Z,14.00
2019-02-15T16:32:43.205Z,13.90
2019-02-15T16:35:12.767Z,13.80
2019-02-15T16:37:42.312Z,13.60
2019-02-15T16:40:12.614Z,13.50
2019-02-15T16:42:42.393Z,13.30
2019-02-15T16:45:13.812Z,13.10
2019-02-15T16:47:43.501Z,13.00
2019-02-15T16:50:13.084Z,12.80
2019-02-15T16:52:42.508Z,12.70
2019-02-15T16:55:13.256Z,12.50
2019-02-15T16:57:43.334Z,12.30
2019-02-15T17:00:12.944Z,12.20
2019-02-15T17:02:45.124Z,12.00
2019-02-15T17:05:15.660Z,11.80
2019-02-15T17:07:45.145Z,11.70
2019-02-15T17:10:14.825Z,11.60
2019-02-15T17:12:44.287Z,11.40
2019-02-15T17:15:13.832Z,11.30
2019-02-15T17:17:43.379Z,11.20
2019-02-15T17:20:13.116Z,11.10
2019-02-15T17:22:42.555Z,11.00
2019-02-15T17:25:12.115Z,10.80
2019-02-15T17:27:41.797Z,10.70
2019-02-15T17:30:11.398Z,10.60
2019-02-15T17:32:40.870Z,10.50
2019-02-15T17:35:10.392Z,10.40
2019-02-15T17:37:39.862Z,10.30
2019-02-15T17:40:10.596Z,10.20
2019-02-15T17:42:40.024Z,10.10
2019-02-15T17:45:10.205Z,10.00
2019-02-15T17:47:39.673Z,9.90
2019-02-15T17:50:09.398Z,9.80
2019-02-15T17:52:39.159Z,9.60
2019-02-15T17:55:08.808Z,9.50
2019-02-15T17:57:38.425Z,9.40
2019-02-15T18:00:08.799Z,9.30
2019-02-15T18:02:38.196Z,9.20
2019-02-15T18:05:09.984Z,9.10
2019-02-15T18:07:40.332Z,9.10
2019-02-15T18:10:10.315Z,9.00
2019-02-15T18:12:39.931Z,9.00
2019-02-15T18:15:09.533Z,8.90
2019-02-15T18:17:39.078Z,8.80
2019-02-15T18:20:08.818Z,8.80
2019-02-15T18:22:38.306Z,8.70
2019-02-15T18:25:07.944Z,8.70
2019-02-15T18:27:37.560Z,8.60
2019-02-15T18:30:08.541Z,8.60
2019-02-15T18:32:38.351Z,8.50
2019-02-15T18:35:07.989Z,8.60
2019-02-15T18:37:37.523Z,8.60
2019-02-15T18:40:07.690Z,8.60
2019-02-15T18:42:37.685Z,8.70
2019-02-15T18:45:09.891Z,8.70
2019-02-15T18:47:39.483Z,8.70
2019-02-15T18:50:09.475Z,8.80
2019-02-15T18:52:40.512Z,8.90
2019-02-15T18:55:11.160Z,8.90
2019-02-15T18:57:41.747Z,8.90
2019-02-15T19:00:14.048Z,8.90
2019-02-15T19:02:44.088Z,9.00
2019-02-15T19:05:14.148Z,9.00
2019-02-15T19:07:43.884Z,9.00
2019-02-15T19:10:15.421Z,9.00
2019-02-15T19:12:44.959Z,9.00
2019-02-15T19:15:16.228Z,9.00
2019-02-15T19:17:46.067Z,9.00
2019-02-15T19:20:16.084Z,9.00
2019-02-15T19:22:45.712Z,9.00
2019-02-15T19:25:16.107Z,9.00
2019-02-15T19:27:46.460Z,9.00
2019-02-15T19:30:21.117Z,9.00
2019-02-15T19:32:50.775Z,9.00
2019-02-15T19:35:20.410Z,9.00
2019-02-15T19:37:50.274Z,9.00
2019-02-15T19:40:21.829Z,8.90
2019-02-15T19:42:52.438Z,9.00
2019-02-15T19:45:24.033Z,9.00
2019-02-15T19:47:55.320Z,9.00
2019-02-15T19:50:29.634Z,9.10
2019-02-15T19:52:59.708Z,9.10
2019-02-15T19:55:30.311Z,9.10
2019-02-15T19:58:00.250Z,9.20
2019-02-15T20:00:32.632Z,9.20
2019-02-15T20:03:03.471Z,9.20
2019-02-15T20:05:33.361Z,9.20
2019-02-15T20:08:03.058Z,9.30
2019-02-15T20:10:32.834Z,9.30
2019-02-15T20:13:03.016Z,9.30
2019-02-15T20:15:34.556Z,9.30
2019-02-15T20:18:05.323Z,9.20
2019-02-15T20:20:36.932Z,9.20
2019-02-15T20:23:06.507Z,9.20
2019-02-15T20:25:36.192Z,9.20
2019-02-15T20:28:13.835Z,9.10
2019-02-15T20:30:37.794Z,9.10
2019-02-15T20:33:07.511Z,9.00
2019-02-15T20:35:38.053Z,8.90
2019-02-15T20:38:08.591Z,8.80
2019-02-15T20:40:38.091Z,8.70
2019-02-15T20:43:08.017Z,8.70
2019-02-15T20:45:37.563Z,8.60
2019-02-15T20:48:11.913Z,8.50
2019-02-15T20:50:40.365Z,8.50
2019-02-15T20:53:10.735Z,8.50
2019-02-15T20:55:40.872Z,8.40
2019-02-15T20:58:11.551Z,8.30
2019-02-15T21:00:41.097Z,8.20
2019-02-15T21:03:11.066Z,8.10
2019-02-15T21:05:40.591Z,8.00
2019-02-15T21:08:10.400Z,7.90
2019-02-15T21:10:40.203Z,7.80
2019-02-15T21:13:09.850Z,7.70
2019-02-15T21:15:40.767Z,7.70
2019-02-15T21:18:10.689Z,7.70
2019-02-15T21:20:40.372Z,7.60
2019-02-15T21:23:11.521Z,7.50
2019-02-15T21:25:41.561Z,7.50
2019-02-15T21:28:11.914Z,7.50
2019-02-15T21:30:42.261Z,7.50
2019-02-15T21:33:12.223Z,7.50
2019-02-15T21:35:42.251Z,7.50
2019-02-15T21:38:11.800Z,7.50
2019-02-15T21:40:41.531Z,7.50
2019-02-15T21:43:11.358Z,7.70
2019-02-15T21:45:40.883Z,7.70
2019-02-15T21:48:10.582Z,7.90
2019-02-15T21:50:40.137Z,7.90
2019-02-15T21:53:10.725Z,8.00
2019-02-15T21:55:40.290Z,8.10
2019-02-15T21:58:09.829Z,8.20
2019-02-15T22:00:39.374Z,8.40
2019-02-15T22:03:08.867Z,8.40
2019-02-15T22:05:38.350Z,8.60
2019-02-15T22:08:07.790Z,8.60
2019-02-15T22:10:37.264Z,8.60
2019-02-15T22:13:06.873Z,8.60
2019-02-15T22:15:36.432Z,8.70
2019-02-15T22:18:06.010Z,8.90
2019-02-15T22:20:35.657Z,8.90
2019-02-15T22:23:05.282Z,8.80
2019-02-15T22:25:34.696Z,8.80
2019-02-15T22:28:04.192Z,8.80
2019-02-15T22:30:33.759Z,8.80
2019-02-15T22:33:03.224Z,8.70
2019-02-15T22:35:32.711Z,8.60
2019-02-15T22:38:02.264Z,8.60
2019-02-15T22:40:36.381Z,8.60
2019-02-15T22:43:08.905Z,8.60
2019-02-15T22:45:38.334Z,8.60
2019-02-15T22:48:07.782Z,8.60
2019-02-15T22:50:37.327Z,8.50
2019-02-15T22:53:07.496Z,8.50
2019-02-15T22:55:36.918Z,8.50
2019-02-15T22:58:06.443Z,8.50
2019-02-15T23:00:49.193Z,8.40
2019-02-15T23:03:20.800Z,8.40
2019-02-15T23:05:50.312Z,8.40
2019-02-15T23:08:19.920Z,8.40
2019-02-15T23:10:49.425Z,8.40
2019-02-15T23:13:18.975Z,8.40
2019-02-15T23:15:48.382Z,8.40
2019-02-15T23:18:19.062Z,8.40
2019-02-15T23:20:48.739Z,8.40
2019-02-15T23:23:18.202Z,8.40
2019-02-15T23:25:47.802Z,8.40
2019-02-15T23:28:17.259Z,8.40
2019-02-15T23:30:47.640Z,8.40
2019-02-15T23:33:17.065Z,8.30
2019-02-15T23:35:46.482Z,8.30
2019-02-15T23:38:15.919Z,8.20
2019-02-15T23:40:45.272Z,8.20
2019-02-15T23:43:14.719Z,8.20
2019-02-15T23:45:45.075Z,8.10
2019-02-15T23:48:14.785Z,8.10
2019-02-15T23:50:44.139Z,8.00
2019-02-15T23:53:13.556Z,8.00
2019-02-15T23:55:42.923Z,8.00
2019-02-15T23:58:12.474Z,7.90
